createdAt,value
2022-07-31T00:01:16.108Z,97343.00
2022-07-31T00:03:43.114Z,97353.00
2022-07-31T00:06:10.084Z,97345.00
2022-07-31T00:08:36.926Z,97349.00
2022-07-31T00:11:03.782Z,97348.00
2022-07-31T00:13:57.437Z,97346.00
2022-07-31T00:16:17.528Z,97354.00
2022-07-31T00:18:44.404Z,97346.00
2022-07-31T00:21:11.353Z,97356.00
2022-07-31T00:23:38.215Z,97350.00
2022-07-31T00:26:05.036Z,97345.00
2022-07-31T00:28:31.879Z,97347.00
2022-07-31T00:30:58.689Z,97352.00
2022-07-31T00:33:25.514Z,97339.00
2022-07-31T00:35:52.335Z,97343.00
2022-07-31T00:38:27.103Z,97348.00
2022-07-31T00:40:54.623Z,97342.00
2022-07-31T00:43:21.893Z,97342.00
2022-07-31T00:45:58.669Z,97342.00
2022-07-31T00:48:25.993Z,97336.00
2022-07-31T00:50:55.609Z,97338.00
2022-07-31T00:53:22.486Z,97337.00
2022-07-31T00:55:51.966Z,97340.00
2022-07-31T00:58:20.224Z,97339.00
2022-07-31T01:00:47.943Z,97335.00
2022-07-31T01:03:15.474Z,97336.00
2022-07-31T01:05:42.357Z,97335.00
2022-07-31T01:08:09.258Z,97340.00
2022-07-31T01:11:03.556Z,97342.00
2022-07-31T01:13:47.473Z,97342.00
2022-07-31T01:16:15.585Z,97334.00
2022-07-31T01:18:43.538Z,97330.00
2022-07-31T01:21:19.910Z,97337.00
2022-07-31T01:24:15.769Z,97339.00
2022-07-31T01:27:04.302Z,97345.00
2022-07-31T01:30:01.103Z,97337.00
2022-07-31T01:32:41.942Z,97339.00
2022-07-31T01:35:18.118Z,97351.00
2022-07-31T01:37:53.900Z,97347.00
2022-07-31T01:40:28.323Z,97345.00
2022-07-31T01:43:09.104Z,97350.00
2022-07-31T01:45:39.445Z,97346.00
2022-07-31T01:48:08.562Z,97344.00
2022-07-31T01:50:43.683Z,97342.00
2022-07-31T01:53:16.414Z,97349.00
2022-07-31T01:56:02.984Z,97341.00
2022-07-31T01:58:37.063Z,97346.00
2022-07-31T02:01:05.758Z,97340.00
2022-07-31T02:03:43.023Z,97347.00
2022-07-31T02:06:15.167Z,97345.00
2022-07-31T02:08:45.910Z,97339.00
2022-07-31T02:11:16.034Z,97342.00
2022-07-31T02:13:44.907Z,97334.00
2022-07-31T02:16:14.357Z,97338.00
2022-07-31T02:18:42.558Z,97337.00
2022-07-31T02:21:10.262Z,97330.00
2022-07-31T02:23:38.471Z,97331.00
2022-07-31T02:26:07.107Z,97338.00
2022-07-31T02:28:38.184Z,97333.00
2022-07-31T02:31:10.851Z,97336.00
2022-07-31T02:33:40.247Z,97335.00
2022-07-31T02:36:07.577Z,97338.00
2022-07-31T02:38:35.283Z,97331.00
2022-07-31T02:41:05.074Z,97330.00
2022-07-31T02:43:33.379Z,97329.00
2022-07-31T02:46:00.719Z,97327.00
2022-07-31T02:48:28.192Z,97341.00
2022-07-31T02:50:56.174Z,97330.00
2022-07-31T02:53:23.229Z,97327.00
2022-07-31T02:55:51.752Z,97325.00
2022-07-31T02:58:18.678Z,97315.00
2022-07-31T03:00:45.960Z,97325.00
2022-07-31T03:03:13.321Z,97321.00
2022-07-31T03:05:40.185Z,97323.00
2022-07-31T03:08:07.019Z,97328.00
2022-07-31T03:10:33.838Z,97320.00
2022-07-31T03:13:01.632Z,97328.00
2022-07-31T03:15:30.688Z,97320.00
2022-07-31T03:17:58.511Z,97321.00
2022-07-31T03:20:27.070Z,97325.00
2022-07-31T03:22:54.428Z,97327.00
2022-07-31T03:25:22.290Z,97323.00
2022-07-31T03:27:56.707Z,97322.00
2022-07-31T03:30:25.271Z,97321.00
2022-07-31T03:32:56.774Z,97319.00
2022-07-31T03:35:24.990Z,97320.00
2022-07-31T03:37:52.291Z,97325.00
2022-07-31T03:40:19.457Z,97319.00
2022-07-31T03:42:49.159Z,97313.00
2022-07-31T03:45:16.785Z,97328.00
2022-07-31T03:47:43.893Z,97333.00
2022-07-31T03:50:11.630Z,97324.00
2022-07-31T03:52:38.992Z,97328.00
2022-07-31T03:55:08.323Z,97334.00
2022-07-31T03:57:37.983Z,97325.00
2022-07-31T04:00:07.921Z,97332.00
2022-07-31T04:02:45.041Z,97325.00
2022-07-31T04:05:12.191Z,97333.00
2022-07-31T04:07:39.071Z,97329.00
2022-07-31T04:10:06.754Z,97326.00
2022-07-31T04:12:33.656Z,97324.00
2022-07-31T04:15:00.519Z,97339.00
2022-07-31T04:17:27.397Z,97335.00
2022-07-31T04:19:57.972Z,97330.00
2022-07-31T04:22:25.398Z,97330.00
2022-07-31T04:24:52.263Z,97323.00
2022-07-31T04:27:19.371Z,97335.00
2022-07-31T04:29:46.662Z,97332.00
2022-07-31T04:32:13.538Z,97335.00
2022-07-31T04:34:40.511Z,97334.00
2022-07-31T04:37:07.543Z,97336.00
2022-07-31T04:39:34.789Z,97331.00
2022-07-31T04:42:01.939Z,97338.00
2022-07-31T04:44:29.079Z,97345.00
2022-07-31T04:47:00.705Z,97343.00
2022-07-31T04:49:27.790Z,97347.00
2022-07-31T04:51:54.777Z,97346.00
2022-07-31T04:54:21.646Z,97345.00
2022-07-31T04:56:48.633Z,97344.00
2022-07-31T04:59:20.224Z,97347.00
2022-07-31T05:01:48.522Z,97343.00
2022-07-31T05:04:16.395Z,97350.00
2022-07-31T05:06:46.699Z,97344.00
2022-07-31T05:09:18.980Z,97334.00
2022-07-31T05:11:48.282Z,97340.00
2022-07-31T05:14:17.836Z,97340.00
2022-07-31T05:16:45.730Z,97338.00
2022-07-31T05:19:14.741Z,97340.00
2022-07-31T05:21:52.957Z,97336.00
2022-07-31T05:24:32.720Z,97335.00
2022-07-31T05:27:02.768Z,97336.00
2022-07-31T05:29:31.085Z,97334.00
2022-07-31T05:31:59.966Z,97342.00
2022-07-31T05:34:30.168Z,97337.00
2022-07-31T05:37:01.913Z,97331.00
2022-07-31T05:39:30.164Z,97339.00
2022-07-31T05:41:57.473Z,97343.00
2022-07-31T05:44:24.721Z,97332.00
2022-07-31T05:49:19.312Z,97337.00
2022-07-31T05:51:46.731Z,97338.00
2022-07-31T05:54:14.402Z,97338.00
2022-07-31T05:56:41.355Z,97346.00
2022-07-31T05:59:09.677Z,97349.00
2022-07-31T06:01:37.146Z,97353.00
2022-07-31T06:04:04.087Z,97354.00
2022-07-31T06:06:31.006Z,97349.00
2022-07-31T06:09:03.822Z,97356.00
2022-07-31T06:11:32.101Z,97349.00
2022-07-31T06:13:59.283Z,97353.00
2022-07-31T06:16:26.196Z,97353.00
2022-07-31T06:18:53.072Z,97356.00
2022-07-31T06:23:45.710Z,97364.00
2022-07-31T06:26:12.869Z,97361.00
2022-07-31T06:28:48.149Z,97358.00
2022-07-31T06:31:21.207Z,97361.00
2022-07-31T06:33:49.489Z,97359.00
2022-07-31T06:36:18.458Z,97361.00
2022-07-31T06:38:46.000Z,97363.00
2022-07-31T06:41:33.213Z,97360.00
2022-07-31T06:44:00.191Z,97366.00
2022-07-31T06:46:27.787Z,97363.00
2022-07-31T06:48:54.687Z,97366.00
2022-07-31T06:51:36.802Z,97371.00
2022-07-31T06:54:07.584Z,97366.00
2022-07-31T06:56:35.596Z,97374.00
2022-07-31T06:59:03.999Z,97373.00
2022-07-31T07:01:31.309Z,97373.00
2022-07-31T07:03:58.400Z,97359.00
2022-07-31T07:06:25.799Z,97373.00
2022-07-31T07:08:53.405Z,97381.00
2022-07-31T07:11:21.262Z,97372.00
2022-07-31T07:13:48.292Z,97373.00
2022-07-31T07:16:16.055Z,97375.00
2022-07-31T07:18:43.434Z,97376.00
2022-07-31T07:21:11.166Z,97376.00
2022-07-31T07:23:38.182Z,97374.00
2022-07-31T07:26:05.834Z,97373.00
2022-07-31T07:28:33.111Z,97367.00
2022-07-31T07:31:00.139Z,97369.00
2022-07-31T07:33:39.871Z,97360.00
2022-07-31T07:36:07.531Z,97357.00
2022-07-31T07:38:49.134Z,97356.00
2022-07-31T07:41:18.461Z,97357.00
2022-07-31T07:43:45.868Z,97358.00
2022-07-31T07:46:18.804Z,97354.00
2022-07-31T07:48:45.649Z,97351.00
2022-07-31T07:51:12.587Z,97356.00
2022-07-31T07:53:40.401Z,97351.00
2022-07-31T07:56:07.370Z,97354.00
2022-07-31T07:58:34.309Z,97355.00
2022-07-31T08:01:01.630Z,97351.00
2022-07-31T08:03:50.731Z,97350.00
2022-07-31T08:06:15.713Z,97352.00
2022-07-31T08:08:42.558Z,97354.00
2022-07-31T08:11:09.427Z,97352.00
2022-07-31T08:13:36.315Z,97351.00
2022-07-31T08:16:05.749Z,97353.00
2022-07-31T08:18:32.611Z,97342.00
2022-07-31T08:20:59.609Z,97351.00
2022-07-31T08:23:26.476Z,97352.00
2022-07-31T08:25:53.352Z,97347.00
2022-07-31T08:28:26.027Z,97349.00
2022-07-31T08:30:53.959Z,97351.00
2022-07-31T08:33:21.119Z,97348.00
2022-07-31T08:35:50.853Z,97341.00
2022-07-31T08:38:19.702Z,97337.00
2022-07-31T08:40:47.184Z,97345.00
2022-07-31T08:44:00.155Z,97341.00
2022-07-31T08:46:02.883Z,97334.00
2022-07-31T08:48:33.418Z,97333.00
2022-07-31T08:51:03.783Z,97330.00
2022-07-31T08:53:36.099Z,97332.00
2022-07-31T08:56:06.220Z,97327.00
2022-07-31T08:58:38.726Z,97330.00
2022-07-31T09:01:08.372Z,97335.00
2022-07-31T09:03:36.182Z,97333.00
2022-07-31T09:06:04.428Z,97329.00
2022-07-31T09:08:36.621Z,97324.00
2022-07-31T09:11:13.751Z,97320.00
2022-07-31T09:14:02.987Z,97317.00
2022-07-31T09:16:31.305Z,97314.00
2022-07-31T09:19:52.431Z,97320.00
2022-07-31T09:21:52.582Z,97317.00
2022-07-31T09:24:31.150Z,97317.00
2022-07-31T09:27:09.864Z,97326.00
2022-07-31T09:29:41.432Z,97312.00
2022-07-31T09:32:21.308Z,97317.00
2022-07-31T09:34:48.611Z,97319.00
2022-07-31T09:37:21.649Z,97304.00
2022-07-31T09:39:57.327Z,97310.00
2022-07-31T09:42:37.194Z,97295.00
2022-07-31T09:45:20.281Z,97290.00
2022-07-31T09:47:47.852Z,97292.00
2022-07-31T09:50:23.710Z,97280.00
2022-07-31T09:55:18.577Z,97277.00
2022-07-31T09:57:54.884Z,97277.00
2022-07-31T10:00:22.581Z,97275.00
2022-07-31T10:02:50.341Z,97279.00
2022-07-31T10:05:18.195Z,97273.00
2022-07-31T10:07:47.353Z,97274.00
2022-07-31T10:10:16.774Z,97267.00
2022-07-31T10:12:50.363Z,97263.00
2022-07-31T10:15:19.343Z,97258.00
2022-07-31T10:17:50.183Z,97260.00
2022-07-31T10:20:24.565Z,97253.00
2022-07-31T10:22:59.657Z,97252.00
2022-07-31T10:25:29.170Z,97249.00
2022-07-31T10:27:57.384Z,97259.00
2022-07-31T10:30:28.050Z,97249.00
2022-07-31T10:32:56.393Z,97249.00
2022-07-31T10:35:23.438Z,97257.00
2022-07-31T10:38:20.642Z,97255.00
2022-07-31T10:41:14.827Z,97245.00
2022-07-31T10:43:57.414Z,97246.00
2022-07-31T10:46:33.007Z,97240.00
2022-07-31T10:49:00.745Z,97238.00
2022-07-31T10:51:46.411Z,97244.00
2022-07-31T10:54:14.205Z,97237.00
2022-07-31T10:56:47.648Z,97242.00
2022-07-31T10:59:14.726Z,97227.00
2022-07-31T11:01:53.893Z,97237.00
2022-07-31T11:04:32.261Z,97231.00
2022-07-31T11:07:00.193Z,97220.00
2022-07-31T11:09:29.245Z,97238.00
2022-07-31T11:11:56.666Z,97222.00
2022-07-31T11:14:40.350Z,97229.00
2022-07-31T11:17:07.625Z,97228.00
2022-07-31T11:19:40.994Z,97229.00
2022-07-31T11:22:31.953Z,97240.00
2022-07-31T11:25:00.582Z,97230.00
2022-07-31T11:27:32.488Z,97233.00
2022-07-31T11:30:13.150Z,97219.00
2022-07-31T11:32:47.141Z,97224.00
2022-07-31T11:35:25.922Z,97217.00
2022-07-31T11:37:56.856Z,97222.00
2022-07-31T11:40:27.222Z,97213.00
2022-07-31T11:43:24.217Z,97212.00
2022-07-31T11:45:51.338Z,97207.00
2022-07-31T11:48:20.672Z,97217.00
2022-07-31T11:50:49.975Z,97213.00
2022-07-31T11:53:18.674Z,97204.00
2022-07-31T11:56:00.806Z,97201.00
2022-07-31T11:58:29.700Z,97208.00
2022-07-31T12:01:02.362Z,97207.00
2022-07-31T12:03:34.593Z,97201.00
2022-07-31T12:06:01.886Z,97204.00
2022-07-31T12:08:29.605Z,97198.00
2022-07-31T12:11:00.098Z,97196.00
2022-07-31T12:13:28.378Z,97190.00
2022-07-31T12:16:04.107Z,97188.00
2022-07-31T12:18:45.071Z,97192.00
2022-07-31T12:21:12.081Z,97181.00
2022-07-31T12:23:51.985Z,97182.00
2022-07-31T12:26:37.234Z,97172.00
2022-07-31T12:29:06.860Z,97167.00
2022-07-31T12:31:50.222Z,97161.00
2022-07-31T12:34:39.041Z,97156.00
2022-07-31T12:37:15.245Z,97159.00
2022-07-31T12:40:00.262Z,97154.00
2022-07-31T12:42:34.053Z,97155.00
2022-07-31T12:45:20.015Z,97157.00
2022-07-31T12:47:51.717Z,97149.00
2022-07-31T12:50:24.109Z,97148.00
2022-07-31T12:52:51.391Z,97149.00
2022-07-31T12:55:18.549Z,97149.00
2022-07-31T12:57:51.560Z,97146.00
2022-07-31T13:00:23.003Z,97151.00
2022-07-31T13:02:51.889Z,97151.00
2022-07-31T13:05:19.157Z,97146.00
2022-07-31T13:07:46.170Z,97143.00
2022-07-31T13:10:20.422Z,97141.00
2022-07-31T13:12:52.781Z,97141.00
2022-07-31T13:15:29.332Z,97131.00
2022-07-31T13:17:58.288Z,97130.00
2022-07-31T13:20:25.831Z,97132.00
2022-07-31T13:22:52.681Z,97125.00
2022-07-31T13:25:20.227Z,97116.00
2022-07-31T13:27:47.836Z,97117.00
2022-07-31T13:30:14.785Z,97116.00
2022-07-31T13:32:41.784Z,97113.00
2022-07-31T13:35:24.211Z,97105.00
2022-07-31T13:37:54.280Z,97109.00
2022-07-31T13:40:41.183Z,97106.00
2022-07-31T13:43:08.166Z,97103.00
2022-07-31T13:45:35.765Z,97102.00
2022-07-31T13:48:06.881Z,97104.00
2022-07-31T13:50:37.453Z,97106.00
2022-07-31T13:53:04.733Z,97093.00
2022-07-31T13:55:31.899Z,97095.00
2022-07-31T13:57:59.453Z,97079.00
2022-07-31T14:00:29.021Z,97091.00
2022-07-31T14:02:56.988Z,97090.00
2022-07-31T14:05:26.808Z,97089.00
2022-07-31T14:07:55.629Z,97094.00
2022-07-31T14:10:23.638Z,97081.00
2022-07-31T14:12:52.600Z,97080.00
2022-07-31T14:15:19.529Z,97081.00
2022-07-31T14:17:46.676Z,97080.00
2022-07-31T14:20:14.058Z,97093.00
2022-07-31T14:22:42.305Z,97095.00
2022-07-31T14:25:12.426Z,97091.00
2022-07-31T14:27:39.784Z,97089.00
2022-07-31T14:30:08.646Z,97090.00
2022-07-31T14:32:35.572Z,97095.00
2022-07-31T14:35:07.788Z,97092.00
2022-07-31T14:37:35.106Z,97090.00
2022-07-31T14:40:01.987Z,97091.00
2022-07-31T14:42:28.834Z,97093.00
2022-07-31T14:44:55.738Z,97088.00
2022-07-31T14:47:22.941Z,97086.00
2022-07-31T14:50:09.102Z,97082.00
2022-07-31T14:52:36.619Z,97081.00
2022-07-31T14:55:03.837Z,97079.00
2022-07-31T14:57:31.493Z,97082.00
2022-07-31T14:59:58.833Z,97080.00
2022-07-31T15:02:26.593Z,97078.00
2022-07-31T15:04:54.111Z,97082.00
2022-07-31T15:07:41.303Z,97074.00
2022-07-31T15:10:12.070Z,97080.00
2022-07-31T15:12:39.154Z,97079.00
2022-07-31T15:15:07.813Z,97067.00
2022-07-31T15:17:34.694Z,97058.00
2022-07-31T15:20:01.602Z,97068.00
2022-07-31T15:22:28.846Z,97066.00
2022-07-31T15:24:55.764Z,97059.00
2022-07-31T15:27:24.108Z,97067.00
2022-07-31T15:30:00.632Z,97067.00
2022-07-31T15:32:37.067Z,97066.00
2022-07-31T15:35:07.337Z,97070.00
2022-07-31T15:37:39.610Z,97070.00
2022-07-31T15:40:12.125Z,97067.00
2022-07-31T15:42:41.993Z,97061.00
2022-07-31T15:45:13.353Z,97063.00
2022-07-31T15:47:42.065Z,97061.00
2022-07-31T15:50:12.829Z,97048.00
2022-07-31T15:55:09.875Z,97056.00
2022-07-31T15:57:37.408Z,97055.00
2022-07-31T16:00:09.477Z,97048.00
2022-07-31T16:02:37.472Z,97048.00
2022-07-31T16:05:11.753Z,97048.00
2022-07-31T16:08:31.038Z,97050.00
2022-07-31T16:10:35.470Z,97041.00
2022-07-31T16:13:02.436Z,97038.00
2022-07-31T16:15:29.583Z,97046.00
2022-07-31T16:17:56.464Z,97042.00
2022-07-31T16:20:26.765Z,97031.00
2022-07-31T16:23:01.245Z,97038.00
2022-07-31T16:25:34.755Z,97038.00
2022-07-31T16:28:03.625Z,97027.00
2022-07-31T16:30:31.002Z,97031.00
2022-07-31T16:32:57.979Z,97035.00
2022-07-31T16:35:26.301Z,97033.00
2022-07-31T16:37:54.229Z,97034.00
2022-07-31T16:40:29.417Z,97034.00
2022-07-31T16:43:48.555Z,97039.00
2022-07-31T16:45:51.561Z,97038.00
2022-07-31T16:48:18.887Z,97038.00
2022-07-31T16:50:47.406Z,97037.00
2022-07-31T16:54:10.320Z,97046.00
2022-07-31T16:56:10.033Z,97046.00
2022-07-31T16:58:36.907Z,97042.00
2022-07-31T17:01:04.267Z,97047.00
2022-07-31T17:04:00.292Z,97046.00
2022-07-31T17:06:18.361Z,97047.00
2022-07-31T17:09:16.399Z,97051.00
2022-07-31T17:11:45.638Z,97052.00
2022-07-31T17:14:12.481Z,97050.00
2022-07-31T17:16:42.259Z,97047.00
2022-07-31T17:21:47.945Z,97045.00
2022-07-31T17:24:16.869Z,97042.00
2022-07-31T17:26:45.282Z,97043.00
2022-07-31T17:29:15.623Z,97042.00
2022-07-31T17:31:43.708Z,97050.00
2022-07-31T17:34:10.639Z,97045.00
2022-07-31T17:36:37.657Z,97043.00
2022-07-31T17:39:05.441Z,97049.00
2022-07-31T17:41:32.824Z,97043.00
2022-07-31T17:43:59.716Z,97053.00
2022-07-31T17:46:34.703Z,97043.00
2022-07-31T17:49:05.955Z,97046.00
2022-07-31T17:51:34.284Z,97048.00
2022-07-31T17:54:01.153Z,97048.00
2022-07-31T17:56:28.144Z,97056.00
2022-07-31T17:58:55.869Z,97048.00
2022-07-31T18:01:28.547Z,97051.00
2022-07-31T18:03:56.175Z,97060.00
2022-07-31T18:06:23.307Z,97053.00
2022-07-31T18:08:50.209Z,97060.00
2022-07-31T18:11:19.581Z,97055.00
2022-07-31T18:13:47.945Z,97058.00
2022-07-31T18:16:15.950Z,97062.00
2022-07-31T18:18:42.840Z,97062.00
2022-07-31T18:21:09.892Z,97062.00
2022-07-31T18:23:36.839Z,97062.00
2022-07-31T18:26:10.635Z,97058.00
2022-07-31T18:28:37.512Z,97067.00
2022-07-31T18:31:04.619Z,97067.00
2022-07-31T18:33:43.477Z,97072.00
2022-07-31T18:36:11.063Z,97077.00
2022-07-31T18:38:39.455Z,97079.00
2022-07-31T18:41:07.371Z,97070.00
2022-07-31T18:43:34.670Z,97071.00
2022-07-31T18:46:01.560Z,97073.00
2022-07-31T18:48:29.970Z,97071.00
2022-07-31T18:51:04.545Z,97070.00
2022-07-31T18:53:33.300Z,97068.00
2022-07-31T18:56:00.295Z,97077.00
2022-07-31T18:58:27.382Z,97079.00
2022-07-31T19:00:55.731Z,97070.00
2022-07-31T19:03:24.309Z,97081.00
2022-07-31T19:05:52.970Z,97084.00
2022-07-31T19:08:20.740Z,97079.00
2022-07-31T19:10:53.422Z,97088.00
2022-07-31T19:13:21.803Z,97091.00
2022-07-31T19:15:52.893Z,97101.00
2022-07-31T19:18:28.085Z,97098.00
2022-07-31T19:21:17.668Z,97095.00
2022-07-31T19:23:43.945Z,97098.00
2022-07-31T19:26:11.147Z,97100.00
2022-07-31T19:28:39.712Z,97100.00
2022-07-31T19:31:07.352Z,97099.00
2022-07-31T19:33:34.224Z,97101.00
2022-07-31T19:36:02.851Z,97111.00
2022-07-31T19:38:31.938Z,97112.00
2022-07-31T19:41:00.276Z,97108.00
2022-07-31T19:43:27.977Z,97114.00
2022-07-31T19:46:10.094Z,97109.00
2022-07-31T19:48:42.477Z,97109.00
2022-07-31T19:51:11.299Z,97117.00
2022-07-31T19:53:39.365Z,97109.00
2022-07-31T19:56:07.181Z,97119.00
2022-07-31T19:58:35.787Z,97117.00
2022-07-31T20:01:05.089Z,97117.00
2022-07-31T20:03:33.298Z,97109.00
2022-07-31T20:06:04.269Z,97106.00
2022-07-31T20:08:33.009Z,97103.00
2022-07-31T20:11:04.020Z,97100.00
2022-07-31T20:13:34.189Z,97099.00
2022-07-31T20:16:01.727Z,97088.00
2022-07-31T20:18:29.645Z,97091.00
2022-07-31T20:21:01.600Z,97096.00
2022-07-31T20:23:29.066Z,97095.00
2022-07-31T20:25:55.940Z,97101.00
2022-07-31T20:28:23.275Z,97107.00
2022-07-31T20:30:50.238Z,97101.00
2022-07-31T20:33:17.403Z,97105.00
2022-07-31T20:35:48.115Z,97108.00
2022-07-31T20:38:21.273Z,97099.00
2022-07-31T20:40:53.739Z,97089.00
2022-07-31T20:43:24.308Z,97090.00
2022-07-31T20:45:53.275Z,97095.00
2022-07-31T20:48:24.947Z,97091.00
2022-07-31T20:50:52.508Z,97094.00
2022-07-31T20:53:20.979Z,97092.00
2022-07-31T20:55:49.989Z,97095.00
2022-07-31T20:58:24.535Z,97085.00
2022-07-31T21:00:53.302Z,97075.00
2022-07-31T21:03:20.910Z,97087.00
2022-07-31T21:05:48.677Z,97077.00
2022-07-31T21:08:16.891Z,97073.00
2022-07-31T21:10:44.275Z,97079.00
2022-07-31T21:13:11.197Z,97077.00
2022-07-31T21:15:41.870Z,97069.00
2022-07-31T21:18:16.101Z,97073.00
2022-07-31T21:20:50.226Z,97068.00
2022-07-31T21:23:23.870Z,97066.00
2022-07-31T21:25:53.615Z,97068.00
2022-07-31T21:28:22.227Z,97062.00
2022-07-31T21:30:49.589Z,97063.00
2022-07-31T21:33:18.233Z,97066.00
2022-07-31T21:35:47.075Z,97061.00
2022-07-31T21:38:17.587Z,97059.00
2022-07-31T21:40:46.568Z,97060.00
2022-07-31T21:43:18.507Z,97063.00
2022-07-31T21:45:55.038Z,97063.00
2022-07-31T21:48:25.931Z,97063.00
2022-07-31T21:50:54.133Z,97063.00
2022-07-31T21:53:22.391Z,97063.00
2022-07-31T21:55:49.958Z,97072.00
2022-07-31T21:58:17.620Z,97065.00
2022-07-31T22:00:45.238Z,97064.00
2022-07-31T22:03:12.242Z,97059.00
2022-07-31T22:05:57.966Z,97067.00
2022-07-31T22:08:24.927Z,97064.00
2022-07-31T22:10:52.365Z,97057.00
2022-07-31T22:13:20.243Z,97058.00
2022-07-31T22:15:51.510Z,97055.00
2022-07-31T22:18:32.282Z,97058.00
2022-07-31T22:21:00.627Z,97059.00
2022-07-31T22:23:28.733Z,97055.00
2022-07-31T22:25:55.938Z,97057.00
2022-07-31T22:28:24.438Z,97052.00
2022-07-31T22:30:52.343Z,97059.00
2022-07-31T22:33:20.736Z,97055.00
2022-07-31T22:35:58.471Z,97053.00
2022-07-31T22:38:30.076Z,97058.00
2022-07-31T22:40:58.541Z,97050.00
2022-07-31T22:44:09.863Z,97050.00
2022-07-31T22:46:13.528Z,97055.00
2022-07-31T22:48:41.159Z,97048.00
2022-07-31T22:51:12.786Z,97036.00
2022-07-31T22:53:43.044Z,97042.00
2022-07-31T22:56:09.920Z,97035.00
2022-07-31T22:58:36.818Z,97051.00
2022-07-31T23:01:04.342Z,97040.00
2022-07-31T23:03:31.174Z,97042.00
2022-07-31T23:06:02.814Z,97040.00
2022-07-31T23:08:44.853Z,97042.00
2022-07-31T23:11:11.678Z,97040.00
2022-07-31T23:13:39.680Z,97040.00
2022-07-31T23:16:06.601Z,97033.00
2022-07-31T23:18:33.489Z,97032.00
2022-07-31T23:21:00.327Z,97036.00
2022-07-31T23:23:27.254Z,97032.00
2022-07-31T23:25:54.131Z,97033.00
2022-07-31T23:28:21.015Z,97026.00
2022-07-31T23:30:47.909Z,97027.00
2022-07-31T23:33:16.423Z,97017.00
2022-07-31T23:35:43.980Z,97027.00
2022-07-31T23:38:11.010Z,97014.00
2022-07-31T23:40:37.999Z,97022.00
2022-07-31T23:43:05.559Z,97014.00
2022-07-31T23:45:32.501Z,97011.00
2022-07-31T23:47:59.351Z,97011.00
2022-07-31T23:50:26.909Z,97002.00
2022-07-31T23:52:53.780Z,96998.00
2022-07-31T23:55:20.883Z,97001.00
2022-07-31T23:57:47.894Z,96999.00
